createdAt,value
2022-08-05T00:01:35.603Z,13.10
2022-08-05T00:04:08.298Z,10.10
2022-08-05T00:06:37.103Z,12.80
2022-08-05T00:09:12.875Z,9.90
2022-08-05T00:11:49.017Z,9.00
2022-08-05T00:14:27.546Z,12.40
2022-08-05T00:16:57.821Z,9.70
2022-08-05T00:19:33.216Z,9.10
2022-08-05T00:22:11.471Z,9.70
2022-08-05T00:24:42.352Z,10.80
2022-08-05T00:27:28.583Z,8.30
2022-08-05T00:30:00.572Z,9.60
2022-08-05T00:32:31.847Z,13.60
2022-08-05T00:35:07.593Z,11.00
2022-08-05T00:37:52.708Z,12.30
2022-08-05T00:40:28.190Z,11.60
2022-08-05T00:43:00.109Z,11.80
2022-08-05T00:45:42.812Z,10.50
2022-08-05T00:48:15.774Z,11.30
2022-08-05T00:50:46.630Z,11.70
2022-08-05T00:54:01.242Z,9.20
2022-08-05T00:56:07.963Z,11.40
2022-08-05T00:58:37.169Z,10.30
2022-08-05T01:01:08.837Z,13.40
2022-08-05T01:03:39.741Z,10.60
2022-08-05T01:06:11.159Z,11.70
2022-08-05T01:08:44.210Z,10.10
2022-08-05T01:11:33.272Z,12.00
2022-08-05T01:14:16.993Z,11.90
2022-08-05T01:17:16.477Z,11.90
2022-08-05T01:20:18.347Z,12.60
2022-08-05T01:23:15.066Z,11.30
2022-08-05T01:26:13.048Z,10.70
2022-08-05T01:29:00.573Z,11.80
2022-08-05T01:31:44.518Z,11.40
2022-08-05T01:34:22.643Z,12.80
2022-08-05T01:37:03.067Z,11.70
2022-08-05T01:39:46.728Z,13.50
2022-08-05T01:42:19.605Z,16.20
2022-08-05T01:44:54.109Z,14.50
2022-08-05T01:47:38.644Z,13.10
2022-08-05T01:50:16.056Z,12.70
2022-08-05T01:52:49.619Z,15.10
2022-08-05T01:55:21.434Z,14.40
2022-08-05T01:58:10.466Z,11.40
2022-08-05T02:00:47.485Z,11.60
2022-08-05T02:03:31.247Z,12.00
2022-08-05T02:06:03.539Z,12.90
2022-08-05T02:08:58.627Z,11.70
2022-08-05T02:11:47.039Z,9.80
2022-08-05T02:14:26.983Z,15.50
2022-08-05T02:17:00.925Z,15.20
2022-08-05T02:19:47.683Z,14.60
2022-08-05T02:22:26.381Z,14.20
2022-08-05T02:25:06.595Z,12.60
2022-08-05T02:27:58.883Z,16.50
2022-08-05T02:30:35.603Z,14.40
2022-08-05T02:33:07.168Z,14.10
2022-08-05T02:35:44.963Z,10.00
2022-08-05T02:38:35.142Z,13.40
2022-08-05T02:41:06.458Z,24.60
2022-08-05T02:44:02.307Z,11.60
2022-08-05T02:46:43.839Z,11.60
2022-08-05T02:49:23.458Z,13.20
2022-08-05T02:52:02.658Z,12.70
2022-08-05T02:54:37.014Z,11.90
2022-08-05T02:58:11.717Z,11.80
2022-08-05T02:59:59.486Z,12.20
2022-08-05T03:02:37.144Z,11.20
2022-08-05T03:05:09.849Z,12.50
2022-08-05T03:08:00.505Z,11.00
2022-08-05T03:10:29.009Z,15.00
2022-08-05T03:15:24.661Z,11.20
2022-08-05T03:17:57.879Z,13.80
2022-08-05T03:20:27.752Z,10.60
2022-08-05T03:22:57.237Z,12.80
2022-08-05T03:25:32.377Z,8.40
2022-08-05T03:28:05.334Z,16.30
2022-08-05T03:30:34.583Z,11.00
2022-08-05T03:33:05.789Z,12.10
2022-08-05T03:35:40.544Z,11.30
2022-08-05T03:38:14.407Z,11.60
2022-08-05T03:40:45.176Z,12.00
2022-08-05T03:44:08.533Z,17.90
2022-08-05T03:46:05.669Z,11.30
2022-08-05T03:48:36.890Z,10.70
2022-08-05T03:52:37.866Z,13.30
2022-08-05T03:55:54.776Z,15.80
2022-08-05T03:57:16.018Z,11.70
2022-08-05T03:59:54.841Z,10.10
2022-08-05T04:02:37.565Z,14.70
2022-08-05T04:05:09.930Z,12.10
2022-08-05T04:07:57.362Z,12.30
2022-08-05T04:10:32.118Z,13.20
2022-08-05T04:13:08.296Z,12.90
2022-08-05T04:15:36.931Z,12.70
2022-08-05T04:18:07.368Z,12.70
2022-08-05T04:20:37.956Z,12.00
2022-08-05T04:23:12.693Z,13.00
2022-08-05T04:25:57.077Z,12.40
2022-08-05T04:28:30.842Z,11.10
2022-08-05T04:31:01.437Z,12.70
2022-08-05T04:34:19.302Z,12.50
2022-08-05T04:36:45.812Z,10.00
2022-08-05T04:39:07.474Z,12.30
2022-08-05T04:41:36.850Z,12.50
2022-08-05T04:44:09.357Z,9.90
2022-08-05T04:46:38.913Z,15.30
2022-08-05T04:49:14.686Z,13.20
2022-08-05T04:51:44.247Z,10.60
2022-08-05T04:54:14.856Z,10.60
2022-08-05T04:56:43.615Z,8.30
2022-08-05T04:59:22.461Z,12.20
2022-08-05T05:02:36.201Z,9.60
2022-08-05T05:04:50.489Z,10.40
2022-08-05T05:07:29.226Z,11.70
2022-08-05T05:09:58.241Z,9.60
2022-08-05T05:12:27.246Z,13.30
2022-08-05T05:14:56.184Z,10.50
2022-08-05T05:17:56.485Z,10.70
2022-08-05T05:20:14.577Z,12.90
2022-08-05T05:22:44.142Z,10.20
2022-08-05T05:25:17.101Z,9.40
2022-08-05T05:27:48.628Z,12.60
2022-08-05T05:30:30.674Z,10.00
2022-08-05T05:33:16.455Z,10.00
2022-08-05T05:35:47.468Z,9.60
2022-08-05T05:38:22.736Z,8.50
2022-08-05T05:40:56.912Z,8.10
2022-08-05T05:43:54.443Z,11.70
2022-08-05T05:46:17.648Z,11.50
2022-08-05T05:48:48.833Z,9.10
2022-08-05T05:51:28.013Z,8.90
2022-08-05T05:53:59.759Z,13.00
2022-08-05T05:56:34.403Z,10.40
2022-08-05T05:59:06.712Z,7.40
2022-08-05T06:01:57.176Z,8.80
2022-08-05T06:04:26.569Z,11.00
2022-08-05T06:06:54.990Z,7.90
2022-08-05T06:09:50.191Z,8.40
2022-08-05T06:12:18.253Z,9.90
2022-08-05T06:14:47.970Z,10.40
2022-08-05T06:17:22.076Z,9.70
2022-08-05T06:19:56.588Z,7.90
2022-08-05T06:22:33.683Z,8.50
2022-08-05T06:25:24.692Z,7.70
2022-08-05T06:28:10.412Z,6.70
2022-08-05T06:30:41.327Z,7.80
2022-08-05T06:33:10.733Z,8.40
2022-08-05T06:36:06.972Z,8.20
2022-08-05T06:38:36.437Z,11.50
2022-08-05T06:41:08.214Z,7.10
2022-08-05T06:43:57.714Z,7.80
2022-08-05T06:46:29.841Z,8.80
2022-08-05T06:49:01.809Z,7.10
2022-08-05T06:51:33.962Z,5.60
2022-08-05T06:54:05.049Z,6.00
2022-08-05T06:56:34.964Z,8.80
2022-08-05T06:59:09.415Z,7.50
2022-08-05T07:01:40.762Z,12.20
2022-08-05T07:04:10.836Z,6.40
2022-08-05T07:06:42.979Z,8.30
2022-08-05T07:09:11.355Z,7.20
2022-08-05T07:11:45.509Z,8.80
2022-08-05T07:14:36.854Z,6.80
2022-08-05T07:18:01.615Z,16.30
2022-08-05T07:20:30.953Z,6.00
2022-08-05T07:22:43.597Z,6.70
2022-08-05T07:25:23.553Z,8.80
2022-08-05T07:28:05.797Z,11.10
2022-08-05T07:30:38.276Z,8.90
2022-08-05T07:33:15.581Z,10.90
2022-08-05T07:36:03.458Z,7.80
2022-08-05T07:38:42.683Z,7.50
2022-08-05T07:42:07.970Z,8.90
2022-08-05T07:44:14.206Z,5.00
2022-08-05T07:46:49.807Z,7.90
2022-08-05T07:49:20.693Z,8.10
2022-08-05T07:51:53.777Z,10.20
2022-08-05T07:54:31.189Z,7.00
2022-08-05T07:57:23.649Z,9.00
2022-08-05T07:59:53.991Z,8.60
2022-08-05T08:02:30.622Z,5.90
2022-08-05T08:05:01.183Z,7.30
2022-08-05T08:07:39.780Z,9.10
2022-08-05T08:10:20.630Z,7.00
2022-08-05T08:12:50.299Z,5.30
2022-08-05T08:15:37.353Z,4.90
2022-08-05T08:18:13.859Z,4.90
2022-08-05T08:21:02.179Z,4.90
2022-08-05T08:24:01.192Z,6.20
2022-08-05T08:26:26.915Z,6.90
2022-08-05T08:29:09.755Z,5.40
2022-08-05T08:31:50.436Z,6.70
2022-08-05T08:34:30.684Z,9.60
2022-08-05T08:37:04.696Z,9.00
2022-08-05T08:39:37.703Z,7.40
2022-08-05T08:42:50.311Z,5.80
2022-08-05T08:45:18.981Z,6.50
2022-08-05T08:48:10.755Z,8.50
2022-08-05T08:51:03.933Z,21.00
2022-08-05T08:53:36.863Z,6.90
2022-08-05T08:56:06.602Z,7.80
2022-08-05T08:58:36.956Z,5.00
2022-08-05T09:01:11.067Z,4.70
2022-08-05T09:03:55.387Z,4.10
2022-08-05T09:06:29.742Z,6.50
2022-08-05T09:09:01.474Z,5.40
2022-08-05T09:11:51.549Z,7.00
2022-08-05T09:14:56.899Z,6.20
2022-08-05T09:17:40.053Z,4.70
2022-08-05T09:20:05.820Z,7.00
2022-08-05T09:23:07.870Z,9.60
2022-08-05T09:26:02.122Z,6.60
2022-08-05T09:31:43.405Z,7.00
2022-08-05T09:34:01.444Z,6.30
2022-08-05T09:36:56.278Z,5.20
2022-08-05T09:39:41.770Z,5.60
2022-08-05T09:42:24.151Z,8.40
2022-08-05T09:46:05.070Z,7.10
2022-08-05T09:47:56.321Z,4.10
2022-08-05T09:50:44.096Z,8.30
2022-08-05T09:53:22.975Z,6.70
2022-08-05T09:56:03.930Z,4.20
2022-08-05T09:58:33.333Z,4.80
2022-08-05T10:01:15.164Z,4.20
2022-08-05T10:04:10.701Z,4.20
2022-08-05T10:06:41.207Z,4.40
2022-08-05T10:09:27.418Z,8.30
2022-08-05T10:12:18.933Z,10.60
2022-08-05T10:15:17.266Z,4.20
2022-08-05T10:18:22.705Z,4.10
2022-08-05T10:21:08.511Z,7.70
2022-08-05T10:23:59.899Z,3.90
2022-08-05T10:26:32.328Z,5.30
2022-08-05T10:29:02.678Z,4.30
2022-08-05T10:32:53.842Z,6.60
2022-08-05T10:34:25.932Z,5.60
2022-08-05T10:36:59.853Z,6.20
2022-08-05T10:39:59.075Z,3.80
2022-08-05T10:42:34.257Z,4.20
2022-08-05T10:45:20.826Z,5.80
2022-08-05T10:48:30.159Z,3.70
2022-08-05T10:51:21.815Z,5.50
2022-08-05T10:53:51.098Z,4.70
2022-08-05T10:56:30.293Z,8.00
2022-08-05T10:59:12.426Z,6.20
2022-08-05T11:02:04.821Z,5.70
2022-08-05T11:04:47.359Z,7.10
2022-08-05T11:07:18.649Z,6.40
2022-08-05T11:10:10.048Z,4.40
2022-08-05T11:12:42.255Z,5.10
2022-08-05T11:15:20.125Z,3.90
2022-08-05T11:17:58.089Z,4.30
2022-08-05T11:20:39.192Z,6.20
2022-08-05T11:24:05.632Z,7.50
2022-08-05T11:26:32.414Z,3.60
2022-08-05T11:29:11.631Z,5.20
2022-08-05T11:31:58.826Z,5.50
2022-08-05T11:34:51.607Z,4.50
2022-08-05T11:38:29.891Z,5.90
2022-08-05T11:41:34.503Z,5.70
2022-08-05T11:44:08.317Z,4.50
2022-08-05T11:47:09.937Z,4.80
2022-08-05T11:49:29.391Z,3.60
2022-08-05T11:52:11.391Z,3.70
2022-08-05T11:54:41.297Z,6.20
2022-08-05T11:57:25.331Z,3.80
2022-08-05T11:59:54.971Z,3.70
2022-08-05T12:02:31.240Z,6.50
2022-08-05T12:05:06.804Z,5.00
2022-08-05T12:08:03.553Z,6.80
2022-08-05T12:10:43.567Z,4.00
2022-08-05T12:13:27.822Z,4.60
2022-08-05T12:16:15.490Z,6.60
2022-08-05T12:18:49.623Z,6.30
2022-08-05T12:21:31.879Z,4.10
2022-08-05T12:24:27.235Z,5.10
2022-08-05T12:26:56.748Z,4.40
2022-08-05T12:29:27.198Z,3.80
2022-08-05T12:31:57.955Z,5.00
2022-08-05T12:34:37.190Z,8.80
2022-08-05T12:37:30.136Z,4.00
2022-08-05T12:40:03.706Z,9.70
2022-08-05T12:42:39.894Z,3.20
2022-08-05T12:45:11.331Z,8.50
2022-08-05T12:48:01.093Z,5.70
2022-08-05T12:50:30.973Z,8.40
2022-08-05T12:53:02.462Z,4.30
2022-08-05T12:55:32.495Z,4.10
2022-08-05T12:58:49.558Z,9.30
2022-08-05T13:02:01.518Z,5.60
2022-08-05T13:03:42.448Z,4.60
2022-08-05T13:06:18.199Z,5.40
2022-08-05T13:08:52.245Z,3.60
2022-08-05T13:11:57.933Z,4.70
2022-08-05T13:14:24.979Z,3.90
2022-08-05T13:17:25.111Z,4.90
2022-08-05T13:20:05.517Z,3.70
2022-08-05T13:22:36.354Z,7.40
2022-08-05T13:25:19.170Z,3.70
2022-08-05T13:27:52.779Z,4.70
2022-08-05T13:30:34.570Z,5.50
2022-08-05T13:33:05.484Z,3.80
2022-08-05T13:35:47.210Z,3.40
2022-08-05T13:38:34.180Z,5.30
2022-08-05T13:41:05.186Z,6.20
2022-08-05T13:43:44.737Z,4.00
2022-08-05T13:46:50.916Z,4.10
2022-08-05T13:49:12.988Z,5.10
2022-08-05T13:51:46.199Z,3.50
2022-08-05T13:54:21.118Z,5.90
2022-08-05T13:56:53.958Z,4.40
2022-08-05T13:59:24.914Z,3.50
2022-08-05T14:02:00.098Z,5.20
2022-08-05T14:04:51.061Z,5.30
2022-08-05T14:07:56.979Z,4.20
2022-08-05T14:10:28.442Z,5.50
2022-08-05T14:12:57.821Z,4.30
2022-08-05T14:16:08.520Z,3.50
2022-08-05T14:18:18.274Z,3.70
2022-08-05T14:20:48.366Z,8.20
2022-08-05T14:23:24.902Z,6.80
2022-08-05T14:25:59.017Z,4.20
2022-08-05T14:28:29.699Z,4.70
2022-08-05T14:31:01.365Z,4.90
2022-08-05T14:33:32.490Z,5.50
2022-08-05T14:36:21.256Z,6.00
2022-08-05T14:38:51.417Z,5.80
2022-08-05T14:41:20.505Z,5.10
2022-08-05T14:44:01.539Z,6.00
2022-08-05T14:46:35.248Z,4.00
2022-08-05T14:49:07.607Z,4.30
2022-08-05T14:51:42.830Z,4.50
2022-08-05T14:54:29.816Z,7.70
2022-08-05T14:56:59.398Z,4.40
2022-08-05T14:59:29.176Z,4.90
2022-08-05T15:01:58.358Z,4.50
2022-08-05T15:04:29.023Z,5.20
2022-08-05T15:06:57.817Z,9.60
2022-08-05T15:09:52.428Z,4.30
2022-08-05T15:12:16.757Z,4.40
2022-08-05T15:14:50.465Z,4.80
2022-08-05T15:20:18.558Z,6.00
2022-08-05T15:22:53.961Z,4.80
2022-08-05T15:25:52.772Z,8.70
2022-08-05T15:28:15.783Z,5.00
2022-08-05T15:30:46.420Z,7.80
2022-08-05T15:33:56.734Z,4.70
2022-08-05T15:36:05.679Z,8.00
2022-08-05T15:38:41.789Z,4.50
2022-08-05T15:41:21.973Z,4.70
2022-08-05T15:43:55.405Z,4.80
2022-08-05T15:46:24.872Z,7.40
2022-08-05T15:49:01.035Z,7.80
2022-08-05T15:52:09.933Z,9.70
2022-08-05T15:54:34.891Z,5.90
2022-08-05T15:57:07.295Z,4.80
2022-08-05T15:59:36.616Z,8.00
2022-08-05T16:02:09.601Z,6.70
2022-08-05T16:04:43.948Z,5.30
2022-08-05T16:07:13.342Z,10.00
2022-08-05T16:09:43.595Z,6.40
2022-08-05T16:12:12.270Z,9.40
2022-08-05T16:14:41.141Z,10.30
2022-08-05T16:17:10.133Z,6.60
2022-08-05T16:20:04.800Z,7.60
2022-08-05T16:22:34.395Z,5.50
2022-08-05T16:25:05.436Z,8.00
2022-08-05T16:28:00.362Z,6.90
2022-08-05T16:30:28.774Z,5.40
2022-08-05T16:32:59.028Z,6.60
2022-08-05T16:35:32.429Z,5.50
2022-08-05T16:38:15.151Z,6.40
2022-08-05T16:40:51.858Z,7.60
2022-08-05T16:43:25.824Z,4.90
2022-08-05T16:46:03.987Z,10.50
2022-08-05T16:48:38.577Z,9.70
2022-08-05T16:51:09.143Z,8.90
2022-08-05T16:54:02.457Z,7.60
2022-08-05T16:56:30.837Z,9.70
2022-08-05T16:59:07.609Z,8.10
2022-08-05T17:01:53.996Z,7.90
2022-08-05T17:04:26.113Z,8.60
2022-08-05T17:07:01.828Z,8.30
2022-08-05T17:09:38.865Z,6.50
2022-08-05T17:12:22.606Z,8.60
2022-08-05T17:15:09.376Z,10.00
2022-08-05T17:17:42.157Z,10.90
2022-08-05T17:20:14.529Z,6.00
2022-08-05T17:22:45.243Z,6.10
2022-08-05T17:25:40.170Z,8.30
2022-08-05T17:28:09.973Z,7.20
2022-08-05T17:30:50.322Z,6.00
2022-08-05T17:33:20.813Z,11.20
2022-08-05T17:36:08.110Z,8.20
2022-08-05T17:38:37.534Z,6.00
2022-08-05T17:41:11.663Z,8.90
2022-08-05T17:43:57.304Z,9.50
2022-08-05T17:46:26.294Z,14.30
2022-08-05T17:48:55.433Z,7.90
2022-08-05T17:51:23.721Z,10.10
2022-08-05T17:53:55.045Z,15.00
2022-08-05T17:56:23.319Z,11.60
2022-08-05T17:58:56.887Z,9.50
2022-08-05T18:01:25.209Z,8.50
2022-08-05T18:03:59.666Z,16.90
2022-08-05T18:06:32.742Z,11.60
2022-08-05T18:09:03.701Z,12.70
2022-08-05T18:11:33.406Z,13.30
2022-08-05T18:14:06.808Z,11.90
2022-08-05T18:16:51.116Z,11.70
2022-08-05T18:19:22.777Z,21.20
2022-08-05T18:22:09.801Z,16.90
2022-08-05T18:24:40.647Z,13.80
2022-08-05T18:27:12.482Z,14.80
2022-08-05T18:29:53.477Z,13.10
2022-08-05T18:32:28.164Z,17.80
2022-08-05T18:34:57.931Z,25.00
2022-08-05T18:37:34.481Z,34.80
2022-08-05T18:41:50.239Z,32.60
2022-08-05T18:42:58.871Z,35.20
2022-08-05T18:45:41.579Z,34.80
2022-08-05T18:48:12.037Z,37.30
2022-08-05T18:52:05.669Z,32.90
2022-08-05T18:54:07.064Z,34.00
2022-08-05T18:56:38.088Z,31.70
2022-08-05T18:59:42.731Z,27.70
2022-08-05T19:01:58.018Z,31.20
2022-08-05T19:04:27.554Z,24.10
2022-08-05T19:06:56.121Z,20.90
2022-08-05T19:09:24.400Z,32.50
2022-08-05T19:12:00.362Z,21.50
2022-08-05T19:14:59.182Z,19.00
2022-08-05T19:17:19.420Z,25.10
2022-08-05T19:19:48.538Z,30.10
2022-08-05T19:22:17.741Z,32.70
2022-08-05T19:24:56.008Z,33.50
2022-08-05T19:27:30.282Z,43.30
2022-08-05T19:29:58.879Z,44.20
2022-08-05T19:32:27.878Z,43.80
2022-08-05T19:34:59.906Z,37.70
2022-08-05T19:38:04.520Z,30.20
2022-08-05T19:40:24.106Z,31.90
2022-08-05T19:43:04.618Z,25.90
2022-08-05T19:45:36.900Z,26.80
2022-08-05T19:48:06.422Z,25.10
2022-08-05T19:50:35.434Z,29.50
2022-08-05T19:53:10.314Z,29.20
2022-08-05T19:56:15.347Z,22.30
2022-08-05T19:58:29.747Z,25.20
2022-08-05T20:00:58.942Z,24.70
2022-08-05T20:03:27.562Z,25.00
2022-08-05T20:06:15.552Z,27.40
2022-08-05T20:08:47.350Z,23.00
2022-08-05T20:11:19.494Z,20.10
2022-08-05T20:13:54.862Z,19.60
2022-08-05T20:16:36.308Z,21.60
2022-08-05T20:19:05.872Z,24.50
2022-08-05T20:21:35.130Z,28.20
2022-08-05T20:24:07.678Z,24.50
2022-08-05T20:26:39.950Z,29.90
2022-08-05T20:29:26.463Z,42.10
2022-08-05T20:31:58.262Z,35.20
2022-08-05T20:34:28.338Z,32.80
2022-08-05T20:36:56.687Z,31.90
2022-08-05T20:39:25.093Z,34.70
2022-08-05T20:42:05.324Z,31.00
2022-08-05T20:44:37.940Z,30.40
2022-08-05T20:47:07.589Z,31.80
2022-08-05T20:49:39.569Z,30.10
2022-08-05T20:52:10.630Z,33.40
2022-08-05T20:54:42.819Z,31.60
2022-08-05T20:57:43.530Z,25.60
2022-08-05T21:00:39.993Z,20.60
2022-08-05T21:03:07.202Z,23.40
2022-08-05T21:05:53.970Z,23.30
2022-08-05T21:08:26.490Z,19.90
2022-08-05T21:10:58.454Z,24.40
2022-08-05T21:13:47.976Z,29.00
2022-08-05T21:16:20.694Z,19.70
2022-08-05T21:18:51.395Z,18.10
2022-08-05T21:21:19.716Z,19.00
2022-08-05T21:23:52.881Z,17.40
2022-08-05T21:26:21.553Z,21.60
2022-08-05T21:28:54.731Z,18.60
2022-08-05T21:31:41.650Z,18.40
2022-08-05T21:34:10.552Z,17.30
2022-08-05T21:36:42.452Z,20.40
2022-08-05T21:39:17.039Z,17.00
2022-08-05T21:42:01.065Z,19.50
2022-08-05T21:44:31.821Z,20.00
2022-08-05T21:47:00.931Z,21.30
2022-08-05T21:49:48.095Z,22.10
2022-08-05T21:52:27.976Z,20.50
2022-08-05T21:55:06.516Z,20.20
2022-08-05T21:57:36.459Z,18.60
2022-08-05T22:00:13.017Z,25.20
2022-08-05T22:02:42.921Z,20.60
2022-08-05T22:05:12.457Z,20.60
2022-08-05T22:07:59.470Z,21.60
2022-08-05T22:10:31.061Z,20.80
2022-08-05T22:14:05.099Z,20.90
2022-08-05T22:16:00.595Z,25.30
2022-08-05T22:18:33.053Z,21.70
2022-08-05T22:21:04.688Z,20.20
2022-08-05T22:24:02.792Z,22.20
2022-08-05T22:26:50.947Z,21.90
2022-08-05T22:29:26.567Z,21.70
2022-08-05T22:32:02.665Z,19.80
2022-08-05T22:34:32.846Z,20.20
2022-08-05T22:37:03.932Z,22.30
2022-08-05T22:39:34.784Z,22.40
2022-08-05T22:42:12.643Z,16.00
2022-08-05T22:44:53.670Z,26.70
2022-08-05T22:47:30.127Z,18.90
2022-08-05T22:50:19.552Z,18.90
2022-08-05T22:52:50.186Z,19.20
2022-08-05T22:55:21.485Z,23.70
2022-08-05T22:57:51.400Z,19.90
2022-08-05T23:00:22.127Z,21.10
2022-08-05T23:02:52.348Z,22.00
2022-08-05T23:05:22.469Z,19.90
2022-08-05T23:07:52.262Z,21.40
2022-08-05T23:10:23.893Z,21.30
2022-08-05T23:12:54.367Z,18.60
2022-08-05T23:15:27.086Z,21.80
2022-08-05T23:18:02.063Z,19.30
2022-08-05T23:20:33.418Z,18.70
2022-08-05T23:23:08.572Z,21.30
2022-08-05T23:25:55.015Z,22.00
2022-08-05T23:28:27.619Z,17.80
2022-08-05T23:31:15.839Z,16.00
2022-08-05T23:34:04.396Z,22.90
2022-08-05T23:36:40.217Z,19.80
2022-08-05T23:39:17.554Z,16.40
2022-08-05T23:42:00.595Z,19.10
2022-08-05T23:44:31.369Z,18.50
2022-08-05T23:47:15.185Z,18.60
2022-08-05T23:49:45.946Z,20.10
2022-08-05T23:52:27.772Z,18.70
2022-08-05T23:54:58.391Z,18.20
2022-08-05T23:57:28.349Z,19.00
